createdAt,value
2022-10-03T00:00:20.531Z,11.54
2022-10-03T00:03:19.909Z,11.51
2022-10-03T00:05:57.693Z,11.51
2022-10-03T00:08:51.934Z,11.51
2022-10-03T00:11:43.316Z,11.50
2022-10-03T00:14:23.548Z,11.51
2022-10-03T00:16:59.421Z,11.50
2022-10-03T00:19:47.633Z,11.44
2022-10-03T00:22:23.473Z,11.43
2022-10-03T00:25:02.345Z,11.43
2022-10-03T00:27:32.126Z,11.48
2022-10-03T00:30:13.559Z,11.48
2022-10-03T00:33:37.628Z,11.43
2022-10-03T00:36:27.521Z,11.34
2022-10-03T00:39:10.738Z,11.36
2022-10-03T00:41:49.496Z,11.39
2022-10-03T00:44:19.627Z,11.35
2022-10-03T00:47:05.331Z,11.37
2022-10-03T00:50:03.172Z,11.38
2022-10-03T00:52:56.506Z,11.42
2022-10-03T00:55:56.027Z,11.39
2022-10-03T00:58:32.765Z,11.40
2022-10-03T01:01:26.896Z,11.36
2022-10-03T01:04:23.868Z,11.36
2022-10-03T01:07:07.445Z,11.35
2022-10-03T01:09:49.602Z,11.29
2022-10-03T01:12:36.467Z,11.24
2022-10-03T01:15:15.906Z,11.23
2022-10-03T01:17:49.755Z,11.21
2022-10-03T01:20:47.812Z,11.24
2022-10-03T01:23:52.956Z,11.26
2022-10-03T01:26:53.755Z,11.28
2022-10-03T01:33:28.340Z,11.20
2022-10-03T01:36:05.357Z,11.18
2022-10-03T01:38:53.824Z,11.19
2022-10-03T01:41:35.207Z,11.22
2022-10-03T01:44:13.896Z,11.18
2022-10-03T01:46:51.972Z,11.20
2022-10-03T01:49:26.336Z,11.12
2022-10-03T01:51:53.587Z,11.10
2022-10-03T01:54:52.585Z,11.08
2022-10-03T01:57:45.360Z,11.08
2022-10-03T02:00:20.878Z,11.02
2022-10-03T02:03:00.173Z,10.99
2022-10-03T02:05:54.840Z,11.04
2022-10-03T02:08:40.826Z,11.07
2022-10-03T02:11:11.688Z,11.06
2022-10-03T02:13:55.657Z,11.11
2022-10-03T02:16:31.618Z,11.08
2022-10-03T02:19:07.368Z,11.07
2022-10-03T02:21:54.492Z,11.12
2022-10-03T02:24:37.441Z,11.14
2022-10-03T02:27:14.134Z,11.19
2022-10-03T02:29:56.114Z,11.10
2022-10-03T02:32:45.392Z,11.04
2022-10-03T02:35:46.997Z,11.07
2022-10-03T02:38:38.286Z,11.09
2022-10-03T02:41:27.179Z,11.00
2022-10-03T02:44:39.439Z,10.94
2022-10-03T02:47:21.633Z,10.95
2022-10-03T02:50:07.420Z,11.01
2022-10-03T02:53:12.027Z,11.00
2022-10-03T02:55:44.671Z,11.00
2022-10-03T02:58:33.520Z,11.09
2022-10-03T03:01:22.348Z,11.16
2022-10-03T03:04:23.332Z,11.21
2022-10-03T03:07:38.677Z,11.23
2022-10-03T03:10:41.138Z,11.13
2022-10-03T03:13:47.828Z,11.03
2022-10-03T03:16:15.016Z,11.04
2022-10-03T03:18:56.071Z,11.01
2022-10-03T03:21:51.688Z,11.07
2022-10-03T03:24:40.770Z,11.01
2022-10-03T03:27:26.173Z,10.95
2022-10-03T03:30:14.107Z,10.90
2022-10-03T03:33:11.270Z,10.77
2022-10-03T03:36:03.718Z,10.77
2022-10-03T03:38:58.129Z,10.85
2022-10-03T03:42:00.379Z,10.84
2022-10-03T03:44:47.462Z,10.88
2022-10-03T03:47:34.633Z,10.91
2022-10-03T03:50:16.645Z,10.87
2022-10-03T03:52:57.346Z,10.78
2022-10-03T03:55:48.781Z,10.73
2022-10-03T03:59:00.409Z,10.70
2022-10-03T04:01:41.797Z,10.71
2022-10-03T04:04:54.064Z,10.73
2022-10-03T04:07:39.729Z,10.75
2022-10-03T04:10:06.539Z,10.77
2022-10-03T04:12:53.540Z,10.76
2022-10-03T04:15:26.165Z,10.79
2022-10-03T04:18:51.374Z,10.78
2022-10-03T04:21:23.913Z,10.74
2022-10-03T04:24:01.852Z,10.78
2022-10-03T04:26:59.723Z,10.73
2022-10-03T04:29:48.151Z,10.75
2022-10-03T04:32:23.653Z,10.77
2022-10-03T04:34:58.304Z,10.77
2022-10-03T04:37:31.553Z,10.75
2022-10-03T04:40:26.023Z,10.76
2022-10-03T04:43:06.088Z,10.72
2022-10-03T04:45:40.522Z,10.66
2022-10-03T04:48:16.745Z,10.64
2022-10-03T04:51:06.273Z,10.67
2022-10-03T04:53:47.718Z,10.63
2022-10-03T04:56:31.858Z,10.66
2022-10-03T04:59:34.479Z,10.65
2022-10-03T05:02:20.177Z,10.62
2022-10-03T05:05:17.600Z,10.64
2022-10-03T05:07:47.030Z,10.63
2022-10-03T05:10:44.402Z,10.67
2022-10-03T05:13:30.272Z,10.62
2022-10-03T05:16:08.443Z,10.60
2022-10-03T05:18:50.326Z,10.61
2022-10-03T05:21:45.523Z,10.65
2022-10-03T05:24:46.631Z,10.62
2022-10-03T05:27:16.126Z,10.57
2022-10-03T05:30:20.391Z,10.57
2022-10-03T05:33:08.828Z,10.53
2022-10-03T05:35:51.505Z,10.46
2022-10-03T05:38:28.112Z,10.47
2022-10-03T05:41:12.525Z,10.53
2022-10-03T05:43:45.032Z,10.55
2022-10-03T05:46:39.792Z,10.46
2022-10-03T05:49:25.922Z,10.44
2022-10-03T05:52:21.975Z,10.46
2022-10-03T05:55:22.811Z,10.49
2022-10-03T05:57:58.655Z,10.49
2022-10-03T06:00:26.316Z,10.51
2022-10-03T06:02:59.356Z,10.50
2022-10-03T06:05:41.173Z,10.52
2022-10-03T06:08:14.643Z,10.44
2022-10-03T06:11:11.972Z,10.43
2022-10-03T06:14:12.110Z,10.44
2022-10-03T06:16:51.049Z,10.48
2022-10-03T06:19:49.873Z,10.54
2022-10-03T06:22:25.875Z,10.57
2022-10-03T06:25:18.194Z,10.55
2022-10-03T06:28:23.053Z,10.55
2022-10-03T06:31:11.799Z,10.64
2022-10-03T06:33:54.329Z,10.69
2022-10-03T06:36:39.460Z,10.70
2022-10-03T06:39:43.515Z,10.73
2022-10-03T06:42:22.245Z,10.68
2022-10-03T06:45:11.255Z,10.65
2022-10-03T06:47:56.388Z,10.64
2022-10-03T06:50:30.757Z,10.71
2022-10-03T06:53:33.063Z,10.72
2022-10-03T06:56:33.628Z,10.75
2022-10-03T06:59:38.364Z,10.82
2022-10-03T07:02:31.332Z,10.89
2022-10-03T07:05:40.945Z,10.88
2022-10-03T07:08:43.846Z,10.90
2022-10-03T07:11:10.584Z,10.89
2022-10-03T07:13:56.665Z,10.93
2022-10-03T07:16:29.630Z,10.97
2022-10-03T07:19:11.605Z,11.02
2022-10-03T07:21:48.777Z,11.07
2022-10-03T07:24:51.542Z,11.08
2022-10-03T07:27:50.967Z,11.04
2022-10-03T07:30:23.943Z,11.02
2022-10-03T07:33:27.920Z,11.06
2022-10-03T07:36:31.590Z,11.10
2022-10-03T07:39:38.265Z,11.13
2022-10-03T07:42:47.313Z,11.13
2022-10-03T07:45:23.419Z,11.13
2022-10-03T07:48:13.144Z,11.14
2022-10-03T07:51:11.055Z,11.17
2022-10-03T07:53:59.592Z,11.19
2022-10-03T07:57:17.015Z,11.25
2022-10-03T08:00:22.858Z,11.30
2022-10-03T08:03:08.030Z,11.31
2022-10-03T08:06:00.911Z,11.33
2022-10-03T08:09:03.404Z,11.31
2022-10-03T08:11:50.598Z,11.36
2022-10-03T08:14:51.843Z,11.41
2022-10-03T08:17:49.873Z,11.38
2022-10-03T08:20:57.892Z,11.31
2022-10-03T08:24:01.798Z,11.37
2022-10-03T08:26:39.638Z,11.44
2022-10-03T08:29:20.913Z,11.49
2022-10-03T08:32:06.212Z,11.56
2022-10-03T08:34:39.077Z,11.59
2022-10-03T08:37:23.063Z,11.62
2022-10-03T08:40:11.436Z,11.60
2022-10-03T08:42:56.332Z,11.67
2022-10-03T08:45:53.902Z,11.72
2022-10-03T08:48:42.454Z,11.75
2022-10-03T08:51:31.364Z,11.78
2022-10-03T08:54:33.207Z,11.80
2022-10-03T08:57:33.217Z,11.78
2022-10-03T09:00:16.736Z,11.79
2022-10-03T09:03:39.326Z,11.84
2022-10-03T09:06:34.442Z,11.79
2022-10-03T09:09:13.249Z,11.84
2022-10-03T09:12:17.945Z,11.84
2022-10-03T09:15:05.374Z,11.86
2022-10-03T09:17:49.403Z,11.85
2022-10-03T09:20:37.149Z,11.88
2022-10-03T09:23:03.912Z,11.90
2022-10-03T09:25:30.647Z,11.93
2022-10-03T09:28:30.378Z,12.01
2022-10-03T09:31:12.800Z,12.09
2022-10-03T09:34:04.895Z,12.14
2022-10-03T09:36:52.804Z,12.14
2022-10-03T09:39:38.194Z,12.15
2022-10-03T09:42:10.769Z,12.19
2022-10-03T09:44:43.842Z,12.22
2022-10-03T09:47:49.189Z,12.26
2022-10-03T09:50:55.435Z,12.41
2022-10-03T09:53:30.136Z,12.58
2022-10-03T09:56:32.311Z,12.74
2022-10-03T09:59:37.363Z,12.84
2022-10-03T10:02:24.772Z,12.90
2022-10-03T10:05:17.182Z,12.93
2022-10-03T10:07:53.137Z,12.98
2022-10-03T10:10:53.498Z,12.90
2022-10-03T10:14:07.357Z,13.05
2022-10-03T10:16:48.382Z,13.07
2022-10-03T10:19:43.934Z,13.08
2022-10-03T10:23:04.725Z,13.13
2022-10-03T10:25:32.476Z,13.20
2022-10-03T10:28:22.991Z,13.27
2022-10-03T10:31:01.942Z,13.31
2022-10-03T10:33:53.476Z,13.27
2022-10-03T10:36:43.696Z,13.12
2022-10-03T10:39:14.320Z,13.12
2022-10-03T10:41:53.470Z,13.18
2022-10-03T10:44:33.941Z,13.15
2022-10-03T10:47:22.747Z,13.17
2022-10-03T10:50:08.357Z,13.17
2022-10-03T10:52:53.570Z,13.21
2022-10-03T10:55:54.302Z,13.21
2022-10-03T10:58:42.300Z,13.31
2022-10-03T11:01:35.138Z,13.30
2022-10-03T11:04:25.467Z,13.47
2022-10-03T11:07:16.920Z,13.68
2022-10-03T11:10:01.872Z,13.85
2022-10-03T11:15:59.847Z,13.95
2022-10-03T11:18:36.964Z,13.92
2022-10-03T11:21:34.884Z,13.82
2022-10-03T11:24:40.164Z,13.78
2022-10-03T11:27:26.682Z,13.79
2022-10-03T11:30:23.841Z,13.88
2022-10-03T11:33:06.800Z,13.92
2022-10-03T11:36:04.981Z,13.98
2022-10-03T11:38:37.933Z,14.15
2022-10-03T11:41:04.786Z,14.38
2022-10-03T11:44:09.557Z,14.67
2022-10-03T11:46:52.224Z,14.88
2022-10-03T11:49:28.177Z,14.93
2022-10-03T11:52:10.380Z,14.92
2022-10-03T11:54:42.930Z,14.90
2022-10-03T11:57:32.081Z,14.88
2022-10-03T12:00:03.269Z,14.82
2022-10-03T12:02:42.173Z,14.74
2022-10-03T12:05:48.131Z,14.68
2022-10-03T12:08:54.731Z,14.49
2022-10-03T12:11:43.240Z,14.39
2022-10-03T12:14:11.534Z,14.40
2022-10-03T12:16:51.439Z,14.50
2022-10-03T12:19:37.836Z,14.54
2022-10-03T12:22:20.570Z,14.57
2022-10-03T12:24:49.822Z,14.61
2022-10-03T12:27:39.136Z,14.63
2022-10-03T12:30:16.333Z,14.59
2022-10-03T12:32:46.024Z,14.54
2022-10-03T12:35:45.585Z,14.42
2022-10-03T12:38:51.194Z,14.39
2022-10-03T12:41:26.138Z,14.32
2022-10-03T12:44:05.331Z,14.30
2022-10-03T12:46:41.575Z,14.24
2022-10-03T12:49:28.387Z,14.31
2022-10-03T12:51:59.775Z,14.30
2022-10-03T12:54:44.412Z,14.32
2022-10-03T12:57:17.369Z,14.28
2022-10-03T12:59:52.770Z,14.28
2022-10-03T13:02:36.812Z,14.35
2022-10-03T13:05:28.414Z,14.37
2022-10-03T13:07:58.095Z,14.45
2022-10-03T13:10:34.303Z,14.71
2022-10-03T13:13:23.749Z,14.98
2022-10-03T13:16:07.496Z,15.11
2022-10-03T13:19:14.944Z,15.16
2022-10-03T13:22:16.970Z,15.12
2022-10-03T13:24:54.364Z,15.09
2022-10-03T13:27:37.797Z,14.96
2022-10-03T13:30:15.051Z,14.95
2022-10-03T13:32:52.253Z,14.89
2022-10-03T13:35:56.869Z,14.70
2022-10-03T13:38:47.746Z,14.51
2022-10-03T13:41:25.579Z,14.45
2022-10-03T13:44:00.886Z,14.39
2022-10-03T13:46:48.746Z,14.27
2022-10-03T13:49:34.472Z,14.28
2022-10-03T13:52:27.091Z,14.34
2022-10-03T13:54:54.585Z,14.34
2022-10-03T13:57:27.424Z,14.37
2022-10-03T14:00:08.870Z,14.40
2022-10-03T14:03:09.099Z,14.47
2022-10-03T14:05:46.326Z,14.44
2022-10-03T14:09:02.347Z,14.38
2022-10-03T14:11:48.654Z,14.29
2022-10-03T14:14:22.038Z,14.26
2022-10-03T14:17:22.487Z,14.20
2022-10-03T14:19:55.668Z,14.29
2022-10-03T14:22:39.008Z,14.37
2022-10-03T14:25:26.338Z,14.39
2022-10-03T14:27:55.693Z,14.40
2022-10-03T14:30:33.982Z,14.40
2022-10-03T14:33:23.915Z,14.36
2022-10-03T14:35:58.819Z,14.36
2022-10-03T14:39:00.819Z,14.36
2022-10-03T14:41:41.779Z,14.43
2022-10-03T14:44:13.901Z,14.37
2022-10-03T14:47:25.414Z,14.24
2022-10-03T14:50:00.119Z,14.16
2022-10-03T14:52:37.196Z,14.18
2022-10-03T14:55:29.858Z,14.19
2022-10-03T14:58:11.058Z,14.18
2022-10-03T15:00:45.459Z,14.15
2022-10-03T15:03:18.276Z,14.14
2022-10-03T15:05:57.118Z,14.06
2022-10-03T15:08:37.931Z,14.05
2022-10-03T15:11:07.409Z,14.07
2022-10-03T15:14:02.668Z,14.15
2022-10-03T15:16:37.177Z,14.15
2022-10-03T15:19:28.669Z,14.15
2022-10-03T15:22:16.715Z,14.08
2022-10-03T15:24:44.915Z,14.09
2022-10-03T15:27:22.555Z,14.08
2022-10-03T15:29:54.966Z,14.08
2022-10-03T15:32:43.806Z,14.05
2022-10-03T15:35:32.057Z,13.98
2022-10-03T15:38:10.356Z,13.91
2022-10-03T15:40:47.337Z,13.83
2022-10-03T15:43:34.850Z,13.79
2022-10-03T15:46:12.985Z,13.78
2022-10-03T15:48:47.242Z,13.75
2022-10-03T15:51:20.226Z,13.71
2022-10-03T15:53:51.460Z,13.73
2022-10-03T15:56:29.981Z,13.70
2022-10-03T15:59:06.063Z,13.67
2022-10-03T16:01:39.950Z,13.63
2022-10-03T16:04:29.983Z,13.60
2022-10-03T16:07:11.723Z,13.64
2022-10-03T16:09:41.521Z,13.67
2022-10-03T16:12:47.294Z,13.65
2022-10-03T16:15:22.966Z,13.55
2022-10-03T16:17:59.356Z,13.52
2022-10-03T16:20:41.568Z,13.49
2022-10-03T16:23:23.506Z,13.40
2022-10-03T16:25:55.678Z,13.38
2022-10-03T16:28:32.237Z,13.34
2022-10-03T16:31:03.241Z,13.33
2022-10-03T16:33:33.911Z,13.35
2022-10-03T16:36:02.237Z,13.30
2022-10-03T16:38:41.295Z,13.27
2022-10-03T16:41:23.043Z,13.29
2022-10-03T16:44:01.615Z,13.22
2022-10-03T16:46:37.722Z,13.18
2022-10-03T16:49:31.892Z,13.18
2022-10-03T16:52:09.056Z,13.15
2022-10-03T16:54:37.393Z,13.08
2022-10-03T16:57:15.950Z,13.05
2022-10-03T16:59:49.313Z,13.05
2022-10-03T17:02:21.527Z,13.04
2022-10-03T17:04:51.812Z,13.03
2022-10-03T17:07:29.186Z,13.02
2022-10-03T17:10:03.153Z,13.04
2022-10-03T17:12:34.703Z,13.05
2022-10-03T17:15:25.539Z,13.00
2022-10-03T17:18:04.584Z,13.00
2022-10-03T17:20:50.798Z,12.99
2022-10-03T17:23:32.827Z,12.99
2022-10-03T17:26:05.653Z,12.92
2022-10-03T17:28:56.410Z,12.95
2022-10-03T17:31:23.421Z,12.96
2022-10-03T17:33:55.843Z,13.00
2022-10-03T17:36:50.789Z,12.97
2022-10-03T17:39:49.950Z,12.86
2022-10-03T17:42:38.916Z,12.84
2022-10-03T17:45:18.869Z,12.86
2022-10-03T17:48:04.540Z,12.89
2022-10-03T17:50:39.492Z,12.88
2022-10-03T17:53:19.717Z,12.92
2022-10-03T17:55:48.674Z,12.96
2022-10-03T17:58:18.085Z,12.94
2022-10-03T18:00:45.089Z,12.94
2022-10-03T18:03:39.596Z,12.88
2022-10-03T18:06:33.623Z,12.90
2022-10-03T18:09:23.664Z,12.88
2022-10-03T18:11:52.870Z,12.85
2022-10-03T18:14:38.102Z,12.85
2022-10-03T18:17:08.349Z,12.83
2022-10-03T18:19:53.935Z,12.81
2022-10-03T18:22:29.063Z,12.79
2022-10-03T18:25:30.767Z,12.85
2022-10-03T18:28:12.361Z,12.87
2022-10-03T18:30:50.119Z,12.87
2022-10-03T18:33:23.617Z,12.82
2022-10-03T18:35:50.965Z,12.80
2022-10-03T18:38:27.025Z,12.83
2022-10-03T18:41:02.037Z,12.88
2022-10-03T18:43:33.117Z,12.92
2022-10-03T18:46:16.053Z,12.97
2022-10-03T18:49:31.921Z,12.94
2022-10-03T18:52:00.430Z,12.89
2022-10-03T18:54:55.298Z,12.85
2022-10-03T18:58:00.268Z,12.88
2022-10-03T19:00:34.279Z,12.89
2022-10-03T19:03:13.671Z,12.86
2022-10-03T19:05:52.029Z,12.86
2022-10-03T19:09:01.148Z,12.83
2022-10-03T19:11:38.840Z,12.79
2022-10-03T19:14:17.502Z,12.74
2022-10-03T19:17:14.407Z,12.67
2022-10-03T19:19:59.092Z,12.63
2022-10-03T19:22:55.890Z,12.56
2022-10-03T19:25:25.353Z,12.56
2022-10-03T19:27:58.917Z,12.52
2022-10-03T19:30:29.857Z,12.54
2022-10-03T19:33:07.120Z,12.53
2022-10-03T19:35:40.934Z,12.51
2022-10-03T19:38:25.301Z,12.46
2022-10-03T19:40:54.834Z,12.43
2022-10-03T19:43:21.686Z,12.30
2022-10-03T19:46:11.677Z,12.18
2022-10-03T19:48:59.128Z,12.09
2022-10-03T19:51:27.673Z,12.04
2022-10-03T19:53:57.533Z,12.10
2022-10-03T19:56:32.484Z,12.17
2022-10-03T19:59:12.804Z,12.21
2022-10-03T20:01:50.194Z,12.23
2022-10-03T20:04:36.522Z,12.25
2022-10-03T20:07:53.116Z,12.25
2022-10-03T20:10:47.278Z,12.30
2022-10-03T20:13:15.164Z,12.28
2022-10-03T20:15:45.561Z,12.24
2022-10-03T20:18:22.224Z,12.21
2022-10-03T20:20:53.414Z,12.11
2022-10-03T20:23:23.551Z,12.09
2022-10-03T20:26:14.139Z,12.11
2022-10-03T20:28:52.859Z,12.09
2022-10-03T20:31:23.055Z,12.11
2022-10-03T20:33:53.559Z,12.17
2022-10-03T20:36:22.762Z,12.18
2022-10-03T20:39:02.300Z,12.10
2022-10-03T20:41:41.435Z,12.05
2022-10-03T20:44:11.446Z,11.94
2022-10-03T20:46:41.918Z,11.89
2022-10-03T20:49:27.324Z,11.88
2022-10-03T20:51:54.108Z,11.83
2022-10-03T20:54:27.276Z,11.80
2022-10-03T20:57:05.961Z,11.86
2022-10-03T21:00:00.020Z,11.86
2022-10-03T21:03:15.254Z,11.83
2022-10-03T21:05:53.846Z,11.76
2022-10-03T21:08:29.286Z,11.79
2022-10-03T21:10:59.985Z,11.83
2022-10-03T21:13:32.938Z,11.86
2022-10-03T21:16:01.655Z,11.82
2022-10-03T21:18:40.254Z,11.80
2022-10-03T21:21:14.975Z,11.80
2022-10-03T21:23:45.673Z,11.82
2022-10-03T21:26:13.260Z,11.84
2022-10-03T21:28:40.105Z,11.85
2022-10-03T21:31:34.726Z,11.88
2022-10-03T21:34:32.785Z,11.89
2022-10-03T21:37:11.568Z,11.76
2022-10-03T21:39:41.002Z,11.70
2022-10-03T21:42:15.141Z,11.72
2022-10-03T21:44:54.341Z,11.69
2022-10-03T21:47:46.692Z,11.64
2022-10-03T21:50:29.244Z,11.59
2022-10-03T21:53:02.129Z,11.63
2022-10-03T21:55:59.228Z,11.70
2022-10-03T21:58:55.248Z,11.71
2022-10-03T22:01:34.182Z,11.71
2022-10-03T22:04:07.945Z,11.71
2022-10-03T22:06:55.620Z,11.68
2022-10-03T22:09:22.501Z,11.70
2022-10-03T22:12:02.779Z,11.74
2022-10-03T22:14:54.332Z,11.77
2022-10-03T22:17:28.156Z,11.74
2022-10-03T22:20:10.463Z,11.71
2022-10-03T22:23:09.854Z,11.68
2022-10-03T22:26:01.079Z,11.70
2022-10-03T22:28:46.446Z,11.74
2022-10-03T22:31:39.219Z,11.68
2022-10-03T22:34:23.476Z,11.66
2022-10-03T22:36:51.297Z,11.69
2022-10-03T22:39:20.032Z,11.74
2022-10-03T22:41:51.235Z,11.80
2022-10-03T22:44:22.493Z,11.83
2022-10-03T22:46:55.478Z,11.87
2022-10-03T22:49:58.886Z,11.87
2022-10-03T22:52:30.258Z,11.90
2022-10-03T22:54:57.965Z,11.92
2022-10-03T22:57:25.754Z,11.92
2022-10-03T23:00:09.217Z,11.90
2022-10-03T23:02:45.795Z,11.92
2022-10-03T23:05:47.192Z,11.97
2022-10-03T23:08:47.060Z,12.00
2022-10-03T23:11:29.295Z,12.04
2022-10-03T23:14:15.294Z,12.06
2022-10-03T23:16:51.793Z,12.04
2022-10-03T23:19:48.006Z,11.99
2022-10-03T23:22:18.910Z,12.03
2022-10-03T23:25:26.982Z,12.02
2022-10-03T23:28:08.788Z,12.01
2022-10-03T23:30:35.573Z,11.97
2022-10-03T23:33:02.428Z,11.95
2022-10-03T23:35:31.900Z,11.99
2022-10-03T23:38:00.279Z,12.00
2022-10-03T23:40:33.213Z,12.04
2022-10-03T23:43:19.070Z,12.03
2022-10-03T23:45:48.214Z,12.02
2022-10-03T23:48:19.853Z,11.99
2022-10-03T23:50:51.925Z,11.96
2022-10-03T23:53:39.000Z,12.01
2022-10-03T23:56:30.261Z,12.03
2022-10-03T23:59:03.236Z,12.07
